Tansboro, New Jersey
Current Conditions -  °F | °C
As of 7:54 PM on Wednesday 17 Dec 2014 (Local Time) from KVAY Reporting Station
Clear Clear  
Wind Chill: 37°   Ceiling: Unl
Heat Index: 43°   Visibility: 10mi
Dew Point: 27°   Wind: 10mph
Humidity: 53%   Direction: 280°W
Pressure: 29.96"   Gusts: 20mph
Location:  39.7587°N, 74.9349°W
Report Text: KVAY 180054Z AUTO 28009G17KT 10SM CLR 06/M03 A2996 RMK AO2 SLP144 T00611028
Loading
Personal Weather Stations






























Interactive Weather Map New forecast layout! Learn more

10-Day Weather Forecast

Advertisements
Track Severe Weather on mobile